createdAt,value
2018-11-21T00:01:35.846Z,78.99
2018-11-21T00:04:06.528Z,78.77
2018-11-21T00:06:34.958Z,78.28
2018-11-21T00:09:06.136Z,78.75
2018-11-21T00:11:37.362Z,78.77
2018-11-21T00:14:08.914Z,79.92
2018-11-21T00:16:37.672Z,79.05
2018-11-21T00:19:09.226Z,79.04
2018-11-21T00:21:40.765Z,79.12
2018-11-21T00:24:09.261Z,79.35
2018-11-21T00:26:37.758Z,79.34
2018-11-21T00:29:09.118Z,78.80
2018-11-21T00:31:37.559Z,78.15
2018-11-21T00:34:09.029Z,78.90
2018-11-21T00:36:37.462Z,78.52
2018-11-21T00:39:09.823Z,78.85
2018-11-21T00:41:38.245Z,78.31
2018-11-21T00:44:09.720Z,78.46
2018-11-21T00:46:41.289Z,78.57
2018-11-21T00:49:09.693Z,77.97
2018-11-21T00:51:41.187Z,78.52
2018-11-21T00:54:09.929Z,78.18
2018-11-21T00:56:38.339Z,78.15
2018-11-21T00:59:06.818Z,77.73
2018-11-21T01:01:35.219Z,77.25
2018-11-21T01:04:03.732Z,78.57
2018-11-21T01:06:32.140Z,77.38
2018-11-21T01:09:03.505Z,77.53
2018-11-21T01:11:34.717Z,78.32
2018-11-21T01:14:03.231Z,77.52
2018-11-21T01:16:31.625Z,76.90
2018-11-21T01:19:00.791Z,77.33
2018-11-21T01:21:29.360Z,77.61
2018-11-21T01:24:00.677Z,77.43
2018-11-21T01:26:32.080Z,77.57
2018-11-21T01:29:03.614Z,76.78
2018-11-21T01:31:32.017Z,76.86
2018-11-21T01:34:00.784Z,76.87
2018-11-21T01:36:29.346Z,76.87
2018-11-21T01:39:01.011Z,76.39
2018-11-21T01:41:29.536Z,76.25
2018-11-21T01:44:00.717Z,76.51
2018-11-21T01:46:29.128Z,77.20
2018-11-21T01:48:57.648Z,76.32
2018-11-21T01:51:26.042Z,76.70
2018-11-21T01:53:54.477Z,76.29
2018-11-21T01:56:22.989Z,76.35
2018-11-21T01:58:51.384Z,76.30
2018-11-21T02:01:19.782Z,77.54
2018-11-21T02:03:48.240Z,77.11
2018-11-21T02:06:19.853Z,77.07
2018-11-21T02:08:48.548Z,78.08
2018-11-21T02:11:20.453Z,77.45
2018-11-21T02:13:48.873Z,77.29
2018-11-21T02:16:20.059Z,77.14
2018-11-21T02:18:48.475Z,76.71
2018-11-21T02:21:18.766Z,77.52
2018-11-21T02:23:47.539Z,76.41
2018-11-21T02:26:16.198Z,76.75
2018-11-21T02:28:49.241Z,76.68
2018-11-21T02:31:20.622Z,76.86
2018-11-21T02:33:51.841Z,77.73
2018-11-21T02:36:23.297Z,77.27
2018-11-21T02:38:54.868Z,76.86
2018-11-21T02:41:23.276Z,77.36
2018-11-21T02:43:54.742Z,76.93
2018-11-21T02:46:26.388Z,76.86
2018-11-21T02:48:57.558Z,77.47
2018-11-21T02:51:28.975Z,77.39
2018-11-21T02:54:00.620Z,77.07
2018-11-21T02:57:22.714Z,76.60
2018-11-21T03:00:31.550Z,76.79
2018-11-21T03:03:02.801Z,77.04
2018-11-21T03:05:31.219Z,76.89
2018-11-21T03:08:00.658Z,77.06
2018-11-21T03:10:29.177Z,76.55
2018-11-21T03:12:57.889Z,76.67
2018-11-21T03:15:26.300Z,77.48
2018-11-21T03:17:54.724Z,77.41
2018-11-21T03:20:23.136Z,77.18
2018-11-21T03:22:51.792Z,76.75
2018-11-21T03:25:20.305Z,76.76
2018-11-21T03:27:48.708Z,76.85
2018-11-21T03:30:23.740Z,76.66
2018-11-21T03:32:52.152Z,76.63
2018-11-21T03:35:20.561Z,76.66
2018-11-21T03:37:49.002Z,76.92
2018-11-21T03:40:19.377Z,77.41
2018-11-21T03:42:50.611Z,76.46
2018-11-21T03:45:20.971Z,77.62
2018-11-21T03:47:49.424Z,76.77
2018-11-21T03:50:20.710Z,76.96
2018-11-21T03:52:49.125Z,76.71
2018-11-21T03:55:19.807Z,76.70
2018-11-21T03:57:48.208Z,77.15
2018-11-21T04:00:19.413Z,76.46
2018-11-21T04:02:50.665Z,76.83
2018-11-21T04:05:22.332Z,77.56
2018-11-21T04:07:50.757Z,76.67
2018-11-21T04:10:19.158Z,77.21
2018-11-21T04:12:49.607Z,77.23
2018-11-21T04:15:18.064Z,76.78
2018-11-21T04:17:49.742Z,77.46
2018-11-21T04:20:18.256Z,77.13
2018-11-21T04:22:49.587Z,77.70
2018-11-21T04:25:20.791Z,77.46
2018-11-21T04:27:49.168Z,78.43
2018-11-21T04:30:20.116Z,78.36
2018-11-21T04:32:51.877Z,78.09
2018-11-21T04:35:20.284Z,77.77
2018-11-21T04:37:48.707Z,77.57
2018-11-21T04:40:17.460Z,77.65
2018-11-21T04:42:45.992Z,77.41
2018-11-21T04:45:14.396Z,77.72
2018-11-21T04:47:42.795Z,77.93
2018-11-21T04:50:11.230Z,78.21
2018-11-21T04:52:39.644Z,77.99
2018-11-21T04:55:11.058Z,78.38
2018-11-21T04:57:39.584Z,77.95
2018-11-21T05:00:11.395Z,78.04
2018-11-21T05:02:39.836Z,77.80
2018-11-21T05:05:09.735Z,78.35
2018-11-21T05:07:38.164Z,78.50
2018-11-21T05:10:09.601Z,79.20
2018-11-21T05:12:38.382Z,79.35
2018-11-21T05:15:07.037Z,78.96
2018-11-21T05:17:35.607Z,79.40
2018-11-21T05:20:04.077Z,79.22
2018-11-21T05:22:32.530Z,79.09
2018-11-21T05:25:01.061Z,79.03
2018-11-21T05:27:32.349Z,79.88
2018-11-21T05:30:00.760Z,79.21
2018-11-21T05:32:29.113Z,79.50
2018-11-21T05:34:57.527Z,79.31
2018-11-21T05:37:29.017Z,78.64
2018-11-21T05:39:57.711Z,78.63
2018-11-21T05:42:29.141Z,78.80
2018-11-21T05:44:57.591Z,79.15
2018-11-21T05:47:28.545Z,78.85
2018-11-21T05:49:57.108Z,78.78
2018-11-21T05:52:25.887Z,79.06
2018-11-21T05:54:54.427Z,78.78
2018-11-21T05:57:22.834Z,79.65
2018-11-21T05:59:51.246Z,79.71
2018-11-21T06:02:19.692Z,79.19
2018-11-21T06:04:48.203Z,79.53
2018-11-21T06:07:19.644Z,79.70
2018-11-21T06:09:48.240Z,80.21
2018-11-21T06:12:19.708Z,79.67
2018-11-21T06:14:53.762Z,79.80
2018-11-21T06:17:22.245Z,79.86
2018-11-21T06:19:53.743Z,80.84
2018-11-21T06:22:22.442Z,80.58
2018-11-21T06:24:50.840Z,80.68
2018-11-21T06:27:19.248Z,79.80
2018-11-21T06:29:50.299Z,79.91
2018-11-21T06:32:18.710Z,79.88
2018-11-21T06:34:50.004Z,79.80
2018-11-21T06:37:18.421Z,80.02
2018-11-21T06:39:49.643Z,79.96
2018-11-21T06:42:18.067Z,80.28
2018-11-21T06:44:49.338Z,79.63
2018-11-21T06:47:20.689Z,79.06
2018-11-21T06:49:49.148Z,79.46
2018-11-21T06:52:22.220Z,79.70
2018-11-21T06:54:51.272Z,80.04
2018-11-21T06:57:19.736Z,79.79
2018-11-21T06:59:48.296Z,79.53
2018-11-21T07:02:19.595Z,79.88
2018-11-21T07:04:48.057Z,79.50
2018-11-21T07:07:19.646Z,79.39
2018-11-21T07:09:48.083Z,79.99
2018-11-21T07:12:19.368Z,80.00
2018-11-21T07:14:50.877Z,79.67
2018-11-21T07:17:22.047Z,80.17
2018-11-21T07:19:50.453Z,79.64
2018-11-21T07:22:21.611Z,79.79
2018-11-21T07:24:50.147Z,79.57
2018-11-21T07:27:18.537Z,79.54
2018-11-21T07:29:47.277Z,79.61
2018-11-21T07:32:16.099Z,79.54
2018-11-21T07:34:49.811Z,79.83
2018-11-21T07:37:19.627Z,80.30
2018-11-21T07:39:48.159Z,79.56
2018-11-21T07:42:16.825Z,79.55
2018-11-21T07:44:47.639Z,79.89
2018-11-21T07:47:17.725Z,79.71
2018-11-21T07:49:49.684Z,79.02
2018-11-21T07:52:18.257Z,78.96
2018-11-21T07:54:49.636Z,79.40
2018-11-21T07:57:33.164Z,78.85
2018-11-21T08:00:56.323Z,79.43
2018-11-21T08:03:26.043Z,79.37
2018-11-21T08:05:57.942Z,79.45
2018-11-21T08:11:24.789Z,79.33
2018-11-21T08:14:17.758Z,79.20
2018-11-21T08:17:03.864Z,78.96
2018-11-21T08:19:45.938Z,79.27
2018-11-21T08:22:27.268Z,79.03
2018-11-21T08:25:10.654Z,78.33
2018-11-21T08:27:58.537Z,78.97
2018-11-21T08:30:26.935Z,78.99
2018-11-21T08:32:55.338Z,78.55
2018-11-21T08:35:24.047Z,79.09
2018-11-21T08:37:52.401Z,78.33
2018-11-21T08:40:21.168Z,78.69
2018-11-21T08:42:49.598Z,79.56
2018-11-21T08:45:20.946Z,79.19
2018-11-21T08:47:49.278Z,79.37
2018-11-21T08:50:17.758Z,79.61
2018-11-21T08:52:46.299Z,79.65
2018-11-21T08:55:14.994Z,79.45
2018-11-21T08:57:43.185Z,79.11
2018-11-21T09:00:13.070Z,79.15
2018-11-21T09:02:41.496Z,78.10
2018-11-21T09:05:13.045Z,78.98
2018-11-21T09:07:42.276Z,79.21
2018-11-21T09:10:14.370Z,78.27
2018-11-21T09:12:42.909Z,78.31
2018-11-21T09:15:13.574Z,78.85
2018-11-21T09:17:42.508Z,79.48
2018-11-21T09:20:11.409Z,79.59
2018-11-21T09:22:40.021Z,79.48
2018-11-21T09:25:12.256Z,79.86
2018-11-21T09:27:43.989Z,79.29
2018-11-21T09:30:17.572Z,79.06
2018-11-21T09:32:50.344Z,79.23
2018-11-21T09:35:21.572Z,80.38
2018-11-21T09:37:49.983Z,80.17
2018-11-21T09:40:19.903Z,80.50
2018-11-21T09:42:49.663Z,80.44
2018-11-21T09:45:22.083Z,81.32
2018-11-21T09:47:50.664Z,81.17
2018-11-21T09:50:24.203Z,80.61
2018-11-21T09:52:52.638Z,80.58
2018-11-21T09:55:21.060Z,80.42
2018-11-21T09:57:49.486Z,80.50
2018-11-21T10:00:54.364Z,81.01
2018-11-21T10:03:33.402Z,81.67
2018-11-21T10:06:10.275Z,82.08
2018-11-21T10:08:43.049Z,81.71
2018-11-21T10:11:15.866Z,81.89
2018-11-21T10:13:43.182Z,82.36
2018-11-21T10:16:11.583Z,82.28
2018-11-21T10:18:41.527Z,82.05
2018-11-21T10:21:11.746Z,82.19
2018-11-21T10:23:40.734Z,82.73
2018-11-21T10:26:09.589Z,82.21
2018-11-21T10:28:38.343Z,82.08
2018-11-21T10:31:06.768Z,82.56
2018-11-21T10:33:35.153Z,82.58
2018-11-21T10:36:03.924Z,83.06
2018-11-21T10:38:35.276Z,82.99
2018-11-21T10:41:06.812Z,83.16
2018-11-21T10:43:38.469Z,83.09
2018-11-21T10:46:10.011Z,83.09
2018-11-21T10:48:38.703Z,82.80
2018-11-21T10:51:07.149Z,83.03
2018-11-21T10:53:35.645Z,82.88
2018-11-21T10:56:04.077Z,83.53
2018-11-21T10:58:32.487Z,83.06
2018-11-21T11:01:18.704Z,82.93
2018-11-21T11:04:01.477Z,82.83
2018-11-21T11:06:55.038Z,81.87
2018-11-21T11:09:41.407Z,81.89
2018-11-21T11:12:47.103Z,81.45
2018-11-21T11:15:37.312Z,81.51
2018-11-21T11:18:30.545Z,80.71
2018-11-21T11:21:26.864Z,79.45
2018-11-21T11:24:13.069Z,79.24
2018-11-21T11:27:18.783Z,78.61
2018-11-21T11:30:08.463Z,77.87
2018-11-21T11:33:10.828Z,77.81
2018-11-21T11:35:53.454Z,78.05
2018-11-21T11:38:43.014Z,77.61
2018-11-21T11:41:32.303Z,78.53
2018-11-21T11:44:34.541Z,77.60
2018-11-21T11:47:34.005Z,78.56
2018-11-21T11:50:42.631Z,77.94
2018-11-21T11:53:30.156Z,79.07
2018-11-21T11:56:29.993Z,78.89
2018-11-21T11:59:18.448Z,78.37
2018-11-21T12:02:08.553Z,78.29
2018-11-21T12:04:55.414Z,78.04
2018-11-21T12:07:48.674Z,78.31
2018-11-21T12:10:41.376Z,78.73
2018-11-21T12:13:27.405Z,78.94
2018-11-21T12:16:16.652Z,79.11
2018-11-21T12:19:05.251Z,79.20
2018-11-21T12:22:01.849Z,79.11
2018-11-21T12:24:47.483Z,79.47
2018-11-21T12:27:40.024Z,79.47
2018-11-21T12:30:31.777Z,78.59
2018-11-21T12:33:31.165Z,78.75
2018-11-21T12:36:33.812Z,78.75
2018-11-21T12:39:20.431Z,79.26
2018-11-21T12:42:23.160Z,79.84
2018-11-21T12:45:09.389Z,79.97
2018-11-21T12:48:04.556Z,80.06
2018-11-21T12:50:51.480Z,79.98
2018-11-21T12:53:37.695Z,79.50
2018-11-21T12:56:28.048Z,80.12
2018-11-21T12:59:15.131Z,78.79
2018-11-21T13:02:14.378Z,79.38
2018-11-21T13:05:07.701Z,79.39
2018-11-21T13:07:53.892Z,78.84
2018-11-21T13:10:48.896Z,78.71
2018-11-21T13:13:57.544Z,78.45
2018-11-21T13:16:51.546Z,78.88
2018-11-21T13:19:40.813Z,79.42
2018-11-21T13:22:26.151Z,79.12
2018-11-21T13:25:16.720Z,79.45
2018-11-21T13:28:13.252Z,78.99
2018-11-21T13:31:03.680Z,79.05
2018-11-21T13:34:00.168Z,79.23
2018-11-21T13:37:06.174Z,78.56
2018-11-21T13:40:02.489Z,78.58
2018-11-21T13:42:49.977Z,78.33
2018-11-21T13:45:37.945Z,78.70
2018-11-21T13:48:24.299Z,78.68
2018-11-21T13:51:10.766Z,78.56
2018-11-21T13:54:10.663Z,78.47
2018-11-21T13:56:42.049Z,79.33
2018-11-21T13:59:10.452Z,79.57
2018-11-21T14:01:42.235Z,78.62
2018-11-21T14:04:13.489Z,78.91
2018-11-21T14:06:42.047Z,78.95
2018-11-21T14:09:18.826Z,78.95
2018-11-21T14:11:50.912Z,78.96
2018-11-21T14:14:22.361Z,79.07
2018-11-21T14:16:53.899Z,79.83
2018-11-21T14:19:25.357Z,79.30
2018-11-21T14:21:56.981Z,79.41
2018-11-21T14:24:28.748Z,79.56
2018-11-21T14:27:00.263Z,79.63
2018-11-21T14:29:31.871Z,79.62
2018-11-21T14:32:03.028Z,79.80
2018-11-21T14:34:34.292Z,79.05
2018-11-21T14:37:02.703Z,79.21
2018-11-21T14:39:31.198Z,79.53
2018-11-21T14:42:00.395Z,80.35
2018-11-21T14:44:28.865Z,80.44
2018-11-21T14:47:00.614Z,80.66
2018-11-21T14:49:32.094Z,81.17
2018-11-21T14:52:03.530Z,80.49
2018-11-21T14:54:34.774Z,80.31
2018-11-21T14:57:06.369Z,80.87
2018-11-21T14:59:37.609Z,80.83
2018-11-21T15:02:06.075Z,80.11
2018-11-21T15:04:34.553Z,80.82
2018-11-21T15:07:03.310Z,80.98
2018-11-21T15:09:31.701Z,81.24
2018-11-21T15:12:03.080Z,81.12
2018-11-21T15:14:34.674Z,81.26
2018-11-21T15:17:03.097Z,81.22
2018-11-21T15:19:31.494Z,81.11
2018-11-21T15:22:00.035Z,81.35
2018-11-21T15:24:28.439Z,81.68
2018-11-21T15:26:56.933Z,81.99
2018-11-21T15:29:25.476Z,82.14
2018-11-21T15:31:53.979Z,82.32
2018-11-21T15:34:22.485Z,82.11
2018-11-21T15:36:50.911Z,82.04
2018-11-21T15:39:19.633Z,82.06
2018-11-21T15:41:48.447Z,81.53
2018-11-21T15:44:19.533Z,81.68
2018-11-21T15:46:55.038Z,82.01
2018-11-21T15:49:26.533Z,81.72
2018-11-21T15:52:01.566Z,81.41
2018-11-21T15:54:29.398Z,81.24
2018-11-21T15:56:57.806Z,81.75
2018-11-21T15:59:26.276Z,81.91
2018-11-21T16:01:54.902Z,81.81
2018-11-21T16:04:23.335Z,81.58
2018-11-21T16:06:55.055Z,81.88
2018-11-21T16:09:27.203Z,81.81
2018-11-21T16:11:58.672Z,82.07
2018-11-21T16:14:27.071Z,81.87
2018-11-21T16:16:55.523Z,81.91
2018-11-21T16:19:23.932Z,81.74
2018-11-21T16:21:55.154Z,81.76
2018-11-21T16:24:23.682Z,82.33
2018-11-21T16:26:52.084Z,82.97
2018-11-21T16:29:20.429Z,82.43
2018-11-21T16:31:49.022Z,82.18
2018-11-21T16:34:20.310Z,82.08
2018-11-21T16:36:48.730Z,82.21
2018-11-21T16:39:17.558Z,82.58
2018-11-21T16:41:45.954Z,81.99
2018-11-21T16:44:14.506Z,82.32
2018-11-21T16:46:43.025Z,82.08
2018-11-21T16:49:11.536Z,82.23
2018-11-21T16:51:39.966Z,81.98
2018-11-21T16:54:11.196Z,81.79
2018-11-21T16:56:42.503Z,81.83
2018-11-21T16:59:10.900Z,82.17
2018-11-21T17:01:42.171Z,82.55
2018-11-21T17:04:10.602Z,82.30
2018-11-21T17:06:41.994Z,81.77
2018-11-21T17:09:12.043Z,82.27
2018-11-21T17:11:43.320Z,82.49
2018-11-21T17:14:12.011Z,82.22
2018-11-21T17:16:40.478Z,81.93
2018-11-21T17:19:08.892Z,82.33
2018-11-21T17:21:37.681Z,82.20
2018-11-21T17:24:07.051Z,82.22
2018-11-21T17:26:39.243Z,82.10
2018-11-21T17:29:08.799Z,82.97
2018-11-21T17:31:39.102Z,82.67
2018-11-21T17:34:07.529Z,82.63
2018-11-21T17:36:35.945Z,83.40
2018-11-21T17:39:10.421Z,83.52
2018-11-21T17:41:42.235Z,84.96
2018-11-21T17:44:14.189Z,85.44
2018-11-21T17:46:42.814Z,86.04
2018-11-21T17:49:11.260Z,86.23
2018-11-21T17:51:39.685Z,86.59
2018-11-21T17:54:11.734Z,86.76
2018-11-21T17:56:40.581Z,86.61
2018-11-21T17:59:08.936Z,86.72
2018-11-21T18:01:37.389Z,87.34
2018-11-21T18:04:05.960Z,87.45
2018-11-21T18:06:34.506Z,87.78
2018-11-21T18:09:09.431Z,88.15
2018-11-21T18:11:37.955Z,88.29
2018-11-21T18:14:06.753Z,88.51
2018-11-21T18:16:35.230Z,88.29
2018-11-21T18:19:06.670Z,88.69
2018-11-21T18:21:35.433Z,88.65
2018-11-21T18:24:03.872Z,88.90
2018-11-21T18:26:32.294Z,88.97
2018-11-21T18:29:01.079Z,89.40
2018-11-21T18:31:29.506Z,89.16
2018-11-21T18:33:58.061Z,88.81
2018-11-21T18:36:26.500Z,88.16
2018-11-21T18:38:57.905Z,88.58
2018-11-21T18:41:29.468Z,87.89
2018-11-21T18:43:58.289Z,87.29
2018-11-21T18:46:29.790Z,87.86
2018-11-21T18:48:58.713Z,87.48
2018-11-21T18:51:30.081Z,87.67
2018-11-21T18:54:02.739Z,87.01
2018-11-21T18:57:01.285Z,87.01
2018-11-21T18:59:43.734Z,87.04
2018-11-21T19:02:12.249Z,86.96
2018-11-21T19:04:40.681Z,86.70
2018-11-21T19:07:11.953Z,86.99
2018-11-21T19:09:40.393Z,86.77
2018-11-21T19:12:08.849Z,86.80
2018-11-21T19:14:37.663Z,86.83
2018-11-21T19:17:09.010Z,86.67
2018-11-21T19:19:37.459Z,86.93
2018-11-21T19:22:08.885Z,86.89
2018-11-21T19:24:38.644Z,87.04
2018-11-21T19:27:07.120Z,86.42
2018-11-21T19:29:39.013Z,86.76
2018-11-21T19:32:07.743Z,86.47
2018-11-21T19:34:39.167Z,86.14
2018-11-21T19:37:11.504Z,85.45
2018-11-21T19:39:40.449Z,85.60
2018-11-21T19:42:08.981Z,86.11
2018-11-21T19:44:37.406Z,85.85
2018-11-21T19:47:05.926Z,85.60
2018-11-21T19:49:34.337Z,85.01
2018-11-21T19:52:02.906Z,85.26
2018-11-21T19:54:31.341Z,85.34
2018-11-21T19:56:59.854Z,85.42
2018-11-21T19:59:28.302Z,85.34
2018-11-21T20:01:56.710Z,85.50
2018-11-21T20:04:27.933Z,85.01
2018-11-21T20:06:56.352Z,85.12
2018-11-21T20:09:24.779Z,85.52
2018-11-21T20:11:57.189Z,84.96
2018-11-21T20:14:28.748Z,84.79
2018-11-21T20:16:57.565Z,84.84
2018-11-21T20:19:29.142Z,84.67
2018-11-21T20:22:00.616Z,85.17
2018-11-21T20:24:32.137Z,84.97
2018-11-21T20:27:04.005Z,84.48
2018-11-21T20:29:32.859Z,84.25
2018-11-21T20:32:01.497Z,84.18
2018-11-21T20:34:29.906Z,84.45
2018-11-21T20:37:18.124Z,84.38
2018-11-21T20:39:49.357Z,84.20
2018-11-21T20:42:18.140Z,84.52
2018-11-21T20:44:49.434Z,84.03
2018-11-21T20:47:24.367Z,84.53
2018-11-21T20:49:52.820Z,84.34
2018-11-21T20:52:21.226Z,84.19
2018-11-21T20:54:49.778Z,83.76
2018-11-21T20:57:18.235Z,83.68
2018-11-21T20:59:52.679Z,83.91
2018-11-21T21:02:23.865Z,84.14
2018-11-21T21:04:53.396Z,83.96
2018-11-21T21:07:22.535Z,84.72
2018-11-21T21:09:50.293Z,83.88
2018-11-21T21:12:22.006Z,83.72
2018-11-21T21:14:50.782Z,84.18
2018-11-21T21:17:19.241Z,84.26
2018-11-21T21:19:50.410Z,84.04
2018-11-21T21:22:21.704Z,84.03
2018-11-21T21:24:53.354Z,84.34
2018-11-21T21:27:21.826Z,84.34
2018-11-21T21:29:53.406Z,84.18
2018-11-21T21:32:21.814Z,84.14
2018-11-21T21:34:50.289Z,83.46
2018-11-21T21:37:18.898Z,83.59
2018-11-21T21:39:51.830Z,83.72
2018-11-21T21:42:20.260Z,83.82
2018-11-21T21:44:48.777Z,83.78
2018-11-21T21:47:20.192Z,83.34
2018-11-21T21:49:48.617Z,83.74
2018-11-21T21:52:19.990Z,83.67
2018-11-21T21:54:51.502Z,83.72
2018-11-21T21:57:19.945Z,84.05
2018-11-21T21:59:48.377Z,83.88
2018-11-21T22:02:20.273Z,83.88
2018-11-21T22:04:48.896Z,84.16
2018-11-21T22:07:23.157Z,84.51
2018-11-21T22:09:52.207Z,83.95
2018-11-21T22:12:20.744Z,83.63
2018-11-21T22:14:49.426Z,83.92
2018-11-21T22:17:20.788Z,83.54
2018-11-21T22:19:49.253Z,83.87
2018-11-21T22:22:18.344Z,84.12
2018-11-21T22:24:49.468Z,84.00
2018-11-21T22:27:21.729Z,84.23
2018-11-21T22:29:50.180Z,84.04
2018-11-21T22:32:19.054Z,84.23
2018-11-21T22:34:50.626Z,84.00
2018-11-21T22:37:19.054Z,84.13
2018-11-21T22:39:50.032Z,83.45
2018-11-21T22:42:18.709Z,84.56
2018-11-21T22:44:50.563Z,84.00
2018-11-21T22:47:19.091Z,84.06
2018-11-21T22:49:51.058Z,83.44
2018-11-21T22:52:22.434Z,83.84
2018-11-21T22:54:50.844Z,83.49
2018-11-21T22:57:19.272Z,83.70
2018-11-21T22:59:50.877Z,83.52
2018-11-21T23:02:22.341Z,83.72
2018-11-21T23:04:50.879Z,83.14
2018-11-21T23:07:23.170Z,83.25
2018-11-21T23:09:54.388Z,83.46
2018-11-21T23:12:25.971Z,83.32
2018-11-21T23:14:54.454Z,83.76
2018-11-21T23:17:25.796Z,84.10
2018-11-21T23:19:57.519Z,83.48
2018-11-21T23:22:32.554Z,83.23
2018-11-21T23:24:57.339Z,83.10
2018-11-21T23:27:29.340Z,83.29
2018-11-21T23:30:00.857Z,83.35
2018-11-21T23:32:29.272Z,83.49
2018-11-21T23:34:57.688Z,82.93
2018-11-21T23:37:26.099Z,83.83
2018-11-21T23:39:57.242Z,83.78
2018-11-21T23:42:25.659Z,83.66
2018-11-21T23:44:54.106Z,83.02
2018-11-21T23:47:22.553Z,83.14
2018-11-21T23:49:50.987Z,83.19
2018-11-21T23:52:22.533Z,83.77
2018-11-21T23:54:50.936Z,83.92
2018-11-21T23:57:24.938Z,83.57
2018-11-21T23:59:50.679Z,83.30
